sensor_id;sensor_type;location;lat;lon;timestamp;P1;durP1;ratioP1;P2;durP2;ratioP2
62941;SDS011;49042;47.318;19.874;2023-04-19T00:02:13;5.53;;;2.92;;
62941;SDS011;49042;47.318;19.874;2023-04-19T00:05:15;5.15;;;3.25;;
62941;SDS011;49042;47.318;19.874;2023-04-19T00:08:17;6.05;;;3.05;;
62941;SDS011;49042;47.318;19.874;2023-04-19T00:11:18;4.68;;;3.03;;
62941;SDS011;49042;47.318;19.874;2023-04-19T00:14:20;4.93;;;3.03;;
62941;SDS011;49042;47.318;19.874;2023-04-19T00:17:22;5.60;;;3.28;;
62941;SDS011;49042;47.318;19.874;2023-04-19T00:20:23;13.95;;;3.50;;
62941;SDS011;49042;47.318;19.874;2023-04-19T00:23:25;5.85;;;3.08;;
62941;SDS011;49042;47.318;19.874;2023-04-19T00:26:27;10.35;;;3.42;;
62941;SDS011;49042;47.318;19.874;2023-04-19T00:30:57;5.57;;;3.17;;
62941;SDS011;49042;47.318;19.874;2023-04-19T00:33:59;7.80;;;3.00;;
62941;SDS011;49042;47.318;19.874;2023-04-19T00:37:01;5.75;;;3.00;;
62941;SDS011;49042;47.318;19.874;2023-04-19T00:40:05;4.53;;;3.03;;
62941;SDS011;49042;47.318;19.874;2023-04-19T00:43:09;6.07;;;3.50;;
62941;SDS011;49042;47.318;19.874;2023-04-19T00:46:11;5.72;;;3.40;;
62941;SDS011;49042;47.318;19.874;2023-04-19T00:49:15;5.22;;;3.20;;
62941;SDS011;49042;47.318;19.874;2023-04-19T00:52:18;4.75;;;3.20;;
62941;SDS011;49042;47.318;19.874;2023-04-19T00:55:19;7.37;;;3.75;;
62941;SDS011;49042;47.318;19.874;2023-04-19T00:58:23;5.32;;;3.12;;
62941;SDS011;49042;47.318;19.874;2023-04-19T01:01:25;4.18;;;3.08;;
62941;SDS011;49042;47.318;19.874;2023-04-19T01:04:27;8.00;;;3.33;;
62941;SDS011;49042;47.318;19.874;2023-04-19T01:07:29;6.30;;;3.40;;
62941;SDS011;49042;47.318;19.874;2023-04-19T01:10:31;6.47;;;3.70;;
62941;SDS011;49042;47.318;19.874;2023-04-19T01:13:32;6.35;;;3.25;;
62941;SDS011;49042;47.318;19.874;2023-04-19T01:16:34;6.03;;;3.83;;
62941;SDS011;49042;47.318;19.874;2023-04-19T01:19:36;6.20;;;3.55;;
62941;SDS011;49042;47.318;19.874;2023-04-19T01:22:39;9.07;;;3.85;;
62941;SDS011;49042;47.318;19.874;2023-04-19T01:25:40;6.07;;;3.62;;
62941;SDS011;49042;47.318;19.874;2023-04-19T01:28:43;7.10;;;3.45;;
62941;SDS011;49042;47.318;19.874;2023-04-19T01:31:45;6.62;;;4.25;;
62941;SDS011;49042;47.318;19.874;2023-04-19T01:34:51;8.27;;;4.05;;
62941;SDS011;49042;47.318;19.874;2023-04-19T01:37:53;11.68;;;5.10;;
62941;SDS011;49042;47.318;19.874;2023-04-19T01:40:56;7.22;;;4.10;;
62941;SDS011;49042;47.318;19.874;2023-04-19T01:43:58;5.70;;;4.32;;
62941;SDS011;49042;47.318;19.874;2023-04-19T01:47:01;6.12;;;4.18;;
62941;SDS011;49042;47.318;19.874;2023-04-19T01:50:03;7.82;;;3.80;;
62941;SDS011;49042;47.318;19.874;2023-04-19T01:53:05;5.30;;;3.60;;
62941;SDS011;49042;47.318;19.874;2023-04-19T01:56:06;7.25;;;4.18;;
62941;SDS011;49042;47.318;19.874;2023-04-19T01:59:08;9.15;;;4.87;;
62941;SDS011;49042;47.318;19.874;2023-04-19T02:02:10;7.93;;;4.50;;
62941;SDS011;49042;47.318;19.874;2023-04-19T02:05:12;5.95;;;4.32;;
62941;SDS011;49042;47.318;19.874;2023-04-19T02:08:13;7.82;;;4.35;;
62941;SDS011;49042;47.318;19.874;2023-04-19T02:11:15;6.78;;;4.32;;
62941;SDS011;49042;47.318;19.874;2023-04-19T02:14:17;6.80;;;4.50;;
62941;SDS011;49042;47.318;19.874;2023-04-19T02:17:19;7.15;;;4.30;;
62941;SDS011;49042;47.318;19.874;2023-04-19T02:20:20;6.60;;;4.30;;
62941;SDS011;49042;47.318;19.874;2023-04-19T02:23:24;7.37;;;4.32;;
62941;SDS011;49042;47.318;19.874;2023-04-19T02:26:26;8.63;;;4.95;;
62941;SDS011;49042;47.318;19.874;2023-04-19T02:29:28;7.00;;;4.43;;
62941;SDS011;49042;47.318;19.874;2023-04-19T02:32:30;8.40;;;5.07;;
62941;SDS011;49042;47.318;19.874;2023-04-19T02:35:32;10.90;;;5.18;;
62941;SDS011;49042;47.318;19.874;2023-04-19T02:38:34;8.35;;;4.95;;
62941;SDS011;49042;47.318;19.874;2023-04-19T02:41:35;9.77;;;5.30;;
62941;SDS011;49042;47.318;19.874;2023-04-19T02:44:37;7.97;;;4.90;;
62941;SDS011;49042;47.318;19.874;2023-04-19T02:47:39;8.52;;;4.68;;
62941;SDS011;49042;47.318;19.874;2023-04-19T02:50:41;7.90;;;4.62;;
62941;SDS011;49042;47.318;19.874;2023-04-19T02:53:42;7.10;;;5.03;;
62941;SDS011;49042;47.318;19.874;2023-04-19T02:56:44;8.65;;;5.85;;
62941;SDS011;49042;47.318;19.874;2023-04-19T02:59:46;10.25;;;5.70;;
62941;SDS011;49042;47.318;19.874;2023-04-19T03:02:47;10.32;;;5.28;;
62941;SDS011;49042;47.318;19.874;2023-04-19T03:05:49;7.68;;;4.62;;
62941;SDS011;49042;47.318;19.874;2023-04-19T03:08:51;11.50;;;4.45;;
62941;SDS011;49042;47.318;19.874;2023-04-19T03:11:53;7.40;;;4.70;;
62941;SDS011;49042;47.318;19.874;2023-04-19T03:14:54;7.55;;;4.85;;
62941;SDS011;49042;47.318;19.874;2023-04-19T03:17:56;7.80;;;4.82;;
62941;SDS011;49042;47.318;19.874;2023-04-19T03:20:58;8.40;;;4.78;;
62941;SDS011;49042;47.318;19.874;2023-04-19T03:24:00;8.77;;;4.45;;
62941;SDS011;49042;47.318;19.874;2023-04-19T03:27:02;8.77;;;4.60;;
62941;SDS011;49042;47.318;19.874;2023-04-19T03:30:04;8.23;;;4.57;;
62941;SDS011;49042;47.318;19.874;2023-04-19T03:33:06;8.13;;;4.57;;
62941;SDS011;49042;47.318;19.874;2023-04-19T03:36:08;10.38;;;5.18;;
62941;SDS011;49042;47.318;19.874;2023-04-19T03:39:10;9.43;;;5.47;;
62941;SDS011;49042;47.318;19.874;2023-04-19T03:42:11;10.23;;;4.90;;
62941;SDS011;49042;47.318;19.874;2023-04-19T03:45:13;9.05;;;5.03;;
62941;SDS011;49042;47.318;19.874;2023-04-19T03:48:15;8.77;;;5.28;;
62941;SDS011;49042;47.318;19.874;2023-04-19T03:51:16;6.32;;;4.45;;
62941;SDS011;49042;47.318;19.874;2023-04-19T03:54:18;7.35;;;4.03;;
62941;SDS011;49042;47.318;19.874;2023-04-19T03:57:20;7.15;;;4.07;;
62941;SDS011;49042;47.318;19.874;2023-04-19T04:00:22;12.90;;;4.40;;
62941;SDS011;49042;47.318;19.874;2023-04-19T04:03:24;5.62;;;3.72;;
62941;SDS011;49042;47.318;19.874;2023-04-19T04:06:26;7.80;;;3.85;;
62941;SDS011;49042;47.318;19.874;2023-04-19T04:09:28;6.32;;;4.03;;
62941;SDS011;49042;47.318;19.874;2023-04-19T04:12:30;6.82;;;3.85;;
62941;SDS011;49042;47.318;19.874;2023-04-19T04:15:32;9.80;;;4.00;;
62941;SDS011;49042;47.318;19.874;2023-04-19T04:18:33;5.93;;;4.05;;
62941;SDS011;49042;47.318;19.874;2023-04-19T04:21:35;5.70;;;3.33;;
62941;SDS011;49042;47.318;19.874;2023-04-19T04:24:37;4.30;;;3.42;;
62941;SDS011;49042;47.318;19.874;2023-04-19T04:27:41;4.75;;;3.47;;
62941;SDS011;49042;47.318;19.874;2023-04-19T04:30:44;8.27;;;3.05;;
62941;SDS011;49042;47.318;19.874;2023-04-19T04:33:46;5.18;;;3.22;;
62941;SDS011;49042;47.318;19.874;2023-04-19T04:36:48;8.43;;;3.80;;
62941;SDS011;49042;47.318;19.874;2023-04-19T04:39:50;8.82;;;3.60;;
62941;SDS011;49042;47.318;19.874;2023-04-19T04:42:52;5.15;;;3.60;;
62941;SDS011;49042;47.318;19.874;2023-04-19T04:45:54;7.35;;;4.03;;
62941;SDS011;49042;47.318;19.874;2023-04-19T04:48:58;5.80;;;3.87;;
62941;SDS011;49042;47.318;19.874;2023-04-19T04:52:00;5.75;;;3.97;;
62941;SDS011;49042;47.318;19.874;2023-04-19T04:55:02;6.28;;;3.95;;
62941;SDS011;49042;47.318;19.874;2023-04-19T04:58:03;5.43;;;3.58;;
62941;SDS011;49042;47.318;19.874;2023-04-19T05:01:08;5.70;;;3.37;;
62941;SDS011;49042;47.318;19.874;2023-04-19T05:04:09;7.22;;;3.67;;
62941;SDS011;49042;47.318;19.874;2023-04-19T05:07:11;7.85;;;4.12;;
62941;SDS011;49042;47.318;19.874;2023-04-19T05:10:13;8.68;;;4.45;;
62941;SDS011;49042;47.318;19.874;2023-04-19T05:13:15;15.55;;;4.57;;
62941;SDS011;49042;47.318;19.874;2023-04-19T05:16:16;11.55;;;4.18;;
62941;SDS011;49042;47.318;19.874;2023-04-19T05:19:18;5.18;;;3.55;;
62941;SDS011;49042;47.318;19.874;2023-04-19T05:22:20;7.07;;;3.40;;
62941;SDS011;49042;47.318;19.874;2023-04-19T05:25:22;4.97;;;3.20;;
62941;SDS011;49042;47.318;19.874;2023-04-19T05:28:23;5.37;;;3.42;;
62941;SDS011;49042;47.318;19.874;2023-04-19T05:31:25;7.55;;;3.97;;
62941;SDS011;49042;47.318;19.874;2023-04-19T05:34:27;7.03;;;4.00;;
62941;SDS011;49042;47.318;19.874;2023-04-19T05:37:29;5.22;;;3.95;;
62941;SDS011;49042;47.318;19.874;2023-04-19T05:40:31;8.93;;;4.07;;
62941;SDS011;49042;47.318;19.874;2023-04-19T05:43:32;6.47;;;4.07;;
62941;SDS011;49042;47.318;19.874;2023-04-19T05:46:34;9.95;;;4.15;;
62941;SDS011;49042;47.318;19.874;2023-04-19T05:49:36;6.65;;;4.15;;
62941;SDS011;49042;47.318;19.874;2023-04-19T05:52:38;7.03;;;4.15;;
62941;SDS011;49042;47.318;19.874;2023-04-19T05:55:40;6.35;;;4.22;;
62941;SDS011;49042;47.318;19.874;2023-04-19T05:58:41;12.43;;;4.70;;
62941;SDS011;49042;47.318;19.874;2023-04-19T06:01:43;9.05;;;4.87;;
62941;SDS011;49042;47.318;19.874;2023-04-19T06:04:45;7.55;;;4.95;;
62941;SDS011;49042;47.318;19.874;2023-04-19T06:07:47;7.12;;;4.47;;
62941;SDS011;49042;47.318;19.874;2023-04-19T06:10:59;8.77;;;5.20;;
62941;SDS011;49042;47.318;19.874;2023-04-19T06:14:21;7.75;;;5.20;;
62941;SDS011;49042;47.318;19.874;2023-04-19T06:17:23;7.18;;;5.25;;
62941;SDS011;49042;47.318;19.874;2023-04-19T06:20:26;7.25;;;4.82;;
62941;SDS011;49042;47.318;19.874;2023-04-19T06:23:27;8.65;;;5.35;;
62941;SDS011;49042;47.318;19.874;2023-04-19T06:26:29;6.90;;;4.37;;
62941;SDS011;49042;47.318;19.874;2023-04-19T06:29:31;10.40;;;4.40;;
62941;SDS011;49042;47.318;19.874;2023-04-19T06:32:32;7.97;;;4.97;;
62941;SDS011;49042;47.318;19.874;2023-04-19T06:35:34;9.50;;;5.22;;
62941;SDS011;49042;47.318;19.874;2023-04-19T06:38:36;12.30;;;5.75;;
62941;SDS011;49042;47.318;19.874;2023-04-19T06:41:38;8.65;;;5.28;;
62941;SDS011;49042;47.318;19.874;2023-04-19T06:44:40;8.93;;;4.37;;
62941;SDS011;49042;47.318;19.874;2023-04-19T06:47:42;5.47;;;3.83;;
62941;SDS011;49042;47.318;19.874;2023-04-19T06:50:44;6.35;;;3.50;;
62941;SDS011;49042;47.318;19.874;2023-04-19T06:53:45;7.18;;;4.65;;
62941;SDS011;49042;47.318;19.874;2023-04-19T06:56:48;13.52;;;4.43;;
62941;SDS011;49042;47.318;19.874;2023-04-19T06:59:50;8.63;;;4.22;;
62941;SDS011;49042;47.318;19.874;2023-04-19T07:02:52;7.90;;;4.55;;
62941;SDS011;49042;47.318;19.874;2023-04-19T07:05:54;9.68;;;4.25;;
62941;SDS011;49042;47.318;19.874;2023-04-19T07:08:56;8.82;;;4.72;;
62941;SDS011;49042;47.318;19.874;2023-04-19T07:11:58;5.95;;;4.25;;
62941;SDS011;49042;47.318;19.874;2023-04-19T07:15:00;6.93;;;4.80;;
62941;SDS011;49042;47.318;19.874;2023-04-19T07:18:01;10.25;;;5.00;;
62941;SDS011;49042;47.318;19.874;2023-04-19T07:21:03;12.07;;;5.03;;
62941;SDS011;49042;47.318;19.874;2023-04-19T07:24:05;6.05;;;4.68;;
62941;SDS011;49042;47.318;19.874;2023-04-19T07:27:07;10.30;;;4.50;;
62941;SDS011;49042;47.318;19.874;2023-04-19T07:30:09;6.37;;;4.70;;
62941;SDS011;49042;47.318;19.874;2023-04-19T07:33:11;9.07;;;4.30;;
62941;SDS011;49042;47.318;19.874;2023-04-19T07:36:13;11.05;;;4.32;;
62941;SDS011;49042;47.318;19.874;2023-04-19T07:39:15;7.85;;;4.55;;
62941;SDS011;49042;47.318;19.874;2023-04-19T07:42:16;10.30;;;4.90;;
62941;SDS011;49042;47.318;19.874;2023-04-19T07:45:18;5.47;;;4.50;;
62941;SDS011;49042;47.318;19.874;2023-04-19T07:48:20;8.32;;;4.45;;
62941;SDS011;49042;47.318;19.874;2023-04-19T07:51:22;9.15;;;4.90;;
62941;SDS011;49042;47.318;19.874;2023-04-19T07:54:24;7.07;;;4.85;;
62941;SDS011;49042;47.318;19.874;2023-04-19T07:57:26;7.43;;;4.68;;
62941;SDS011;49042;47.318;19.874;2023-04-19T08:00:28;10.32;;;4.90;;
62941;SDS011;49042;47.318;19.874;2023-04-19T08:03:35;7.82;;;5.37;;
62941;SDS011;49042;47.318;19.874;2023-04-19T08:06:37;8.18;;;5.20;;
62941;SDS011;49042;47.318;19.874;2023-04-19T08:09:42;9.93;;;4.97;;
62941;SDS011;49042;47.318;19.874;2023-04-19T08:12:43;9.73;;;5.00;;
62941;SDS011;49042;47.318;19.874;2023-04-19T08:16:04;9.07;;;4.45;;
62941;SDS011;49042;47.318;19.874;2023-04-19T08:19:09;7.10;;;4.75;;
62941;SDS011;49042;47.318;19.874;2023-04-19T08:22:11;6.55;;;4.60;;
62941;SDS011;49042;47.318;19.874;2023-04-19T08:25:12;8.82;;;4.72;;
62941;SDS011;49042;47.318;19.874;2023-04-19T08:28:14;9.25;;;5.15;;
62941;SDS011;49042;47.318;19.874;2023-04-19T08:31:15;22.62;;;6.55;;
62941;SDS011;49042;47.318;19.874;2023-04-19T08:34:17;15.20;;;5.55;;
62941;SDS011;49042;47.318;19.874;2023-04-19T08:37:19;11.60;;;5.50;;
62941;SDS011;49042;47.318;19.874;2023-04-19T08:40:21;11.43;;;6.93;;
62941;SDS011;49042;47.318;19.874;2023-04-19T08:43:24;10.63;;;5.50;;
62941;SDS011;49042;47.318;19.874;2023-04-19T08:46:29;11.95;;;6.10;;
62941;SDS011;49042;47.318;19.874;2023-04-19T08:49:34;12.70;;;5.53;;
62941;SDS011;49042;47.318;19.874;2023-04-19T08:52:37;14.18;;;5.30;;
62941;SDS011;49042;47.318;19.874;2023-04-19T08:55:56;12.70;;;6.12;;
62941;SDS011;49042;47.318;19.874;2023-04-19T08:59:04;12.07;;;6.10;;
62941;SDS011;49042;47.318;19.874;2023-04-19T09:05:13;18.62;;;6.43;;
62941;SDS011;49042;47.318;19.874;2023-04-19T09:08:20;10.23;;;5.53;;
62941;SDS011;49042;47.318;19.874;2023-04-19T09:11:36;10.38;;;6.12;;
62941;SDS011;49042;47.318;19.874;2023-04-19T09:14:43;11.35;;;6.40;;
62941;SDS011;49042;47.318;19.874;2023-04-19T09:18:06;11.35;;;6.85;;
62941;SDS011;49042;47.318;19.874;2023-04-19T09:21:12;15.15;;;6.57;;
62941;SDS011;49042;47.318;19.874;2023-04-19T09:24:37;8.43;;;5.68;;
62941;SDS011;49042;47.318;19.874;2023-04-19T09:27:42;12.25;;;7.12;;
62941;SDS011;49042;47.318;19.874;2023-04-19T09:30:44;11.07;;;5.68;;
62941;SDS011;49042;47.318;19.874;2023-04-19T09:34:13;9.88;;;5.72;;
62941;SDS011;49042;47.318;19.874;2023-04-19T09:37:19;11.55;;;5.90;;
62941;SDS011;49042;47.318;19.874;2023-04-19T09:40:28;14.75;;;6.95;;
62941;SDS011;49042;47.318;19.874;2023-04-19T09:43:29;8.93;;;5.87;;
62941;SDS011;49042;47.318;19.874;2023-04-19T09:46:51;23.70;;;5.78;;
62941;SDS011;49042;47.318;19.874;2023-04-19T09:50:09;11.65;;;6.22;;
62941;SDS011;49042;47.318;19.874;2023-04-19T09:53:24;15.60;;;6.00;;
62941;SDS011;49042;47.318;19.874;2023-04-19T09:56:27;12.75;;;5.97;;
62941;SDS011;49042;47.318;19.874;2023-04-19T09:59:30;10.68;;;5.68;;
62941;SDS011;49042;47.318;19.874;2023-04-19T10:02:32;12.50;;;6.37;;
62941;SDS011;49042;47.318;19.874;2023-04-19T10:05:38;8.85;;;5.87;;
62941;SDS011;49042;47.318;19.874;2023-04-19T10:08:41;9.43;;;5.57;;
62941;SDS011;49042;47.318;19.874;2023-04-19T10:11:46;9.10;;;5.22;;
62941;SDS011;49042;47.318;19.874;2023-04-19T10:14:54;11.15;;;5.47;;
62941;SDS011;49042;47.318;19.874;2023-04-19T10:17:59;8.00;;;5.75;;
62941;SDS011;49042;47.318;19.874;2023-04-19T10:21:03;8.40;;;5.70;;
62941;SDS011;49042;47.318;19.874;2023-04-19T10:24:08;16.33;;;5.20;;
62941;SDS011;49042;47.318;19.874;2023-04-19T10:27:13;14.60;;;5.12;;
62941;SDS011;49042;47.318;19.874;2023-04-19T10:30:21;8.77;;;5.35;;
62941;SDS011;49042;47.318;19.874;2023-04-19T10:33:24;10.65;;;5.50;;
62941;SDS011;49042;47.318;19.874;2023-04-19T10:36:28;9.05;;;5.75;;
62941;SDS011;49042;47.318;19.874;2023-04-19T10:39:39;10.93;;;5.55;;
62941;SDS011;49042;47.318;19.874;2023-04-19T10:49:22;8.32;;;5.30;;
62941;SDS011;49042;47.318;19.874;2023-04-19T10:52:27;10.13;;;5.30;;
62941;SDS011;49042;47.318;19.874;2023-04-19T10:55:32;10.68;;;5.32;;
62941;SDS011;49042;47.318;19.874;2023-04-19T11:02:01;10.25;;;5.72;;
62941;SDS011;49042;47.318;19.874;2023-04-19T11:05:28;11.75;;;4.95;;
62941;SDS011;49042;47.318;19.874;2023-04-19T11:08:29;9.57;;;4.93;;
62941;SDS011;49042;47.318;19.874;2023-04-19T11:11:32;9.32;;;4.85;;
62941;SDS011;49042;47.318;19.874;2023-04-19T11:14:52;9.90;;;5.03;;
62941;SDS011;49042;47.318;19.874;2023-04-19T11:17:58;6.87;;;5.12;;
62941;SDS011;49042;47.318;19.874;2023-04-19T11:21:13;9.35;;;5.62;;
62941;SDS011;49042;47.318;19.874;2023-04-19T11:24:15;11.60;;;6.68;;
62941;SDS011;49042;47.318;19.874;2023-04-19T11:27:19;30.20;;;11.40;;
62941;SDS011;49042;47.318;19.874;2023-04-19T11:30:26;10.20;;;5.90;;
62941;SDS011;49042;47.318;19.874;2023-04-19T11:33:32;9.70;;;5.10;;
62941;SDS011;49042;47.318;19.874;2023-04-19T11:36:35;9.70;;;5.25;;
62941;SDS011;49042;47.318;19.874;2023-04-19T11:39:48;6.68;;;5.00;;
62941;SDS011;49042;47.318;19.874;2023-04-19T11:42:53;42.22;;;15.50;;
62941;SDS011;49042;47.318;19.874;2023-04-19T11:46:08;23.35;;;11.10;;
62941;SDS011;49042;47.318;19.874;2023-04-19T11:49:11;14.73;;;6.57;;
62941;SDS011;49042;47.318;19.874;2023-04-19T11:52:26;115.20;;;41.63;;
62941;SDS011;49042;47.318;19.874;2023-04-19T11:55:31;28.70;;;10.25;;
62941;SDS011;49042;47.318;19.874;2023-04-19T11:58:36;28.73;;;11.45;;
62941;SDS011;49042;47.318;19.874;2023-04-19T12:01:45;9.45;;;4.10;;
62941;SDS011;49042;47.318;19.874;2023-04-19T12:04:47;6.07;;;4.12;;
62941;SDS011;49042;47.318;19.874;2023-04-19T12:11:08;8.05;;;5.85;;
62941;SDS011;49042;47.318;19.874;2023-04-19T12:14:11;8.70;;;4.05;;
62941;SDS011;49042;47.318;19.874;2023-04-19T12:17:13;8.00;;;3.95;;
62941;SDS011;49042;47.318;19.874;2023-04-19T12:20:27;8.00;;;4.50;;
62941;SDS011;49042;47.318;19.874;2023-04-19T12:23:29;8.02;;;3.67;;
62941;SDS011;49042;47.318;19.874;2023-04-19T12:26:31;14.18;;;6.68;;
62941;SDS011;49042;47.318;19.874;2023-04-19T12:29:34;16.12;;;9.05;;
62941;SDS011;49042;47.318;19.874;2023-04-19T12:32:36;6.18;;;4.03;;
62941;SDS011;49042;47.318;19.874;2023-04-19T12:35:38;6.72;;;3.62;;
62941;SDS011;49042;47.318;19.874;2023-04-19T12:38:40;8.75;;;3.92;;
62941;SDS011;49042;47.318;19.874;2023-04-19T12:41:42;11.15;;;4.18;;
62941;SDS011;49042;47.318;19.874;2023-04-19T12:44:43;7.35;;;4.10;;
62941;SDS011;49042;47.318;19.874;2023-04-19T12:47:45;12.25;;;4.22;;
62941;SDS011;49042;47.318;19.874;2023-04-19T12:50:48;5.95;;;4.15;;
62941;SDS011;49042;47.318;19.874;2023-04-19T12:53:51;7.57;;;3.97;;
62941;SDS011;49042;47.318;19.874;2023-04-19T12:56:52;7.20;;;3.55;;
62941;SDS011;49042;47.318;19.874;2023-04-19T12:59:54;11.02;;;3.60;;
62941;SDS011;49042;47.318;19.874;2023-04-19T13:02:56;7.15;;;3.42;;
62941;SDS011;49042;47.318;19.874;2023-04-19T13:05:58;5.85;;;4.00;;
62941;SDS011;49042;47.318;19.874;2023-04-19T13:08:59;13.27;;;3.70;;
62941;SDS011;49042;47.318;19.874;2023-04-19T13:12:02;4.90;;;3.05;;
62941;SDS011;49042;47.318;19.874;2023-04-19T13:15:08;10.18;;;5.65;;
62941;SDS011;49042;47.318;19.874;2023-04-19T13:18:10;12.68;;;3.72;;
62941;SDS011;49042;47.318;19.874;2023-04-19T13:21:12;10.85;;;4.95;;
62941;SDS011;49042;47.318;19.874;2023-04-19T13:24:13;8.13;;;4.97;;
62941;SDS011;49042;47.318;19.874;2023-04-19T13:27:16;13.75;;;4.40;;
62941;SDS011;49042;47.318;19.874;2023-04-19T13:30:18;9.88;;;4.50;;
62941;SDS011;49042;47.318;19.874;2023-04-19T13:33:19;9.57;;;5.10;;
62941;SDS011;49042;47.318;19.874;2023-04-19T13:36:21;9.77;;;4.70;;
62941;SDS011;49042;47.318;19.874;2023-04-19T13:39:23;14.00;;;5.40;;
62941;SDS011;49042;47.318;19.874;2023-04-19T13:42:25;8.70;;;4.22;;
62941;SDS011;49042;47.318;19.874;2023-04-19T13:45:28;12.55;;;3.92;;
62941;SDS011;49042;47.318;19.874;2023-04-19T13:48:30;16.00;;;5.10;;
62941;SDS011;49042;47.318;19.874;2023-04-19T13:51:31;7.00;;;4.07;;
62941;SDS011;49042;47.318;19.874;2023-04-19T13:54:50;6.12;;;4.22;;
62941;SDS011;49042;47.318;19.874;2023-04-19T13:57:51;6.57;;;4.22;;
62941;SDS011;49042;47.318;19.874;2023-04-19T14:00:53;10.45;;;3.83;;
62941;SDS011;49042;47.318;19.874;2023-04-19T14:03:55;6.30;;;3.70;;
62941;SDS011;49042;47.318;19.874;2023-04-19T14:06:57;6.30;;;3.53;;
62941;SDS011;49042;47.318;19.874;2023-04-19T14:09:58;11.75;;;3.92;;
62941;SDS011;49042;47.318;19.874;2023-04-19T14:13:00;9.75;;;5.10;;
62941;SDS011;49042;47.318;19.874;2023-04-19T14:16:02;7.78;;;4.30;;
62941;SDS011;49042;47.318;19.874;2023-04-19T14:19:04;7.97;;;5.00;;
62941;SDS011;49042;47.318;19.874;2023-04-19T14:22:06;11.57;;;5.32;;
62941;SDS011;49042;47.318;19.874;2023-04-19T14:25:08;9.57;;;4.43;;
62941;SDS011;49042;47.318;19.874;2023-04-19T14:28:10;9.93;;;4.93;;
62941;SDS011;49042;47.318;19.874;2023-04-19T14:31:13;11.07;;;5.57;;
62941;SDS011;49042;47.318;19.874;2023-04-19T14:34:14;8.15;;;5.25;;
62941;SDS011;49042;47.318;19.874;2023-04-19T14:37:16;9.82;;;6.28;;
62941;SDS011;49042;47.318;19.874;2023-04-19T14:40:19;11.68;;;5.00;;
62941;SDS011;49042;47.318;19.874;2023-04-19T14:43:21;6.22;;;4.32;;
62941;SDS011;49042;47.318;19.874;2023-04-19T14:46:22;11.05;;;4.37;;
62941;SDS011;49042;47.318;19.874;2023-04-19T14:49:24;8.52;;;4.82;;
62941;SDS011;49042;47.318;19.874;2023-04-19T14:52:26;19.00;;;5.12;;
62941;SDS011;49042;47.318;19.874;2023-04-19T14:55:28;10.40;;;5.32;;
62941;SDS011;49042;47.318;19.874;2023-04-19T14:58:30;10.27;;;4.80;;
62941;SDS011;49042;47.318;19.874;2023-04-19T15:01:31;9.45;;;5.00;;
62941;SDS011;49042;47.318;19.874;2023-04-19T15:04:33;7.40;;;5.03;;
62941;SDS011;49042;47.318;19.874;2023-04-19T15:07:40;7.87;;;4.50;;
62941;SDS011;49042;47.318;19.874;2023-04-19T15:10:41;7.22;;;4.32;;
62941;SDS011;49042;47.318;19.874;2023-04-19T15:13:43;12.30;;;4.50;;
62941;SDS011;49042;47.318;19.874;2023-04-19T15:16:45;7.35;;;4.55;;
62941;SDS011;49042;47.318;19.874;2023-04-19T15:19:47;7.90;;;3.90;;
62941;SDS011;49042;47.318;19.874;2023-04-19T15:22:49;10.30;;;4.65;;
62941;SDS011;49042;47.318;19.874;2023-04-19T15:25:50;8.63;;;4.78;;
62941;SDS011;49042;47.318;19.874;2023-04-19T15:28:53;7.55;;;4.43;;
62941;SDS011;49042;47.318;19.874;2023-04-19T15:31:55;8.27;;;4.93;;
62941;SDS011;49042;47.318;19.874;2023-04-19T15:34:57;10.38;;;4.80;;
62941;SDS011;49042;47.318;19.874;2023-04-19T15:37:58;10.48;;;4.57;;
62941;SDS011;49042;47.318;19.874;2023-04-19T15:41:00;7.03;;;4.78;;
62941;SDS011;49042;47.318;19.874;2023-04-19T15:44:02;11.75;;;5.70;;
62941;SDS011;49042;47.318;19.874;2023-04-19T15:47:04;7.93;;;4.95;;
62941;SDS011;49042;47.318;19.874;2023-04-19T15:50:06;10.88;;;5.50;;
62941;SDS011;49042;47.318;19.874;2023-04-19T15:53:08;7.45;;;4.22;;
62941;SDS011;49042;47.318;19.874;2023-04-19T15:56:10;10.55;;;6.62;;
62941;SDS011;49042;47.318;19.874;2023-04-19T15:59:12;7.40;;;5.60;;
62941;SDS011;49042;47.318;19.874;2023-04-19T16:02:14;17.30;;;9.45;;
62941;SDS011;49042;47.318;19.874;2023-04-19T16:05:16;10.73;;;7.00;;
62941;SDS011;49042;47.318;19.874;2023-04-19T16:08:18;17.12;;;9.82;;
62941;SDS011;49042;47.318;19.874;2023-04-19T16:11:20;26.92;;;11.73;;
62941;SDS011;49042;47.318;19.874;2023-04-19T16:14:22;22.65;;;12.05;;
62941;SDS011;49042;47.318;19.874;2023-04-19T16:17:24;31.90;;;15.60;;
62941;SDS011;49042;47.318;19.874;2023-04-19T16:20:25;19.17;;;12.25;;
62941;SDS011;49042;47.318;19.874;2023-04-19T16:23:27;8.00;;;5.43;;
62941;SDS011;49042;47.318;19.874;2023-04-19T16:26:29;7.00;;;3.85;;
62941;SDS011;49042;47.318;19.874;2023-04-19T16:29:31;6.43;;;3.45;;
62941;SDS011;49042;47.318;19.874;2023-04-19T16:32:33;5.60;;;3.67;;
62941;SDS011;49042;47.318;19.874;2023-04-19T16:35:34;6.37;;;4.30;;
62941;SDS011;49042;47.318;19.874;2023-04-19T16:38:36;16.50;;;7.75;;
62941;SDS011;49042;47.318;19.874;2023-04-19T16:41:38;15.82;;;8.40;;
62941;SDS011;49042;47.318;19.874;2023-04-19T16:44:40;8.40;;;4.87;;
62941;SDS011;49042;47.318;19.874;2023-04-19T16:47:41;9.20;;;4.95;;
62941;SDS011;49042;47.318;19.874;2023-04-19T16:50:47;16.42;;;5.03;;
62941;SDS011;49042;47.318;19.874;2023-04-19T16:53:49;19.42;;;9.27;;
62941;SDS011;49042;47.318;19.874;2023-04-19T16:56:51;51.58;;;19.73;;
62941;SDS011;49042;47.318;19.874;2023-04-19T16:59:53;92.25;;;34.13;;
62941;SDS011;49042;47.318;19.874;2023-04-19T17:02:55;88.70;;;28.35;;
62941;SDS011;49042;47.318;19.874;2023-04-19T17:05:57;67.45;;;24.92;;
62941;SDS011;49042;47.318;19.874;2023-04-19T17:09:02;48.03;;;21.52;;
62941;SDS011;49042;47.318;19.874;2023-04-19T17:12:05;41.05;;;17.23;;
62941;SDS011;49042;47.318;19.874;2023-04-19T17:15:07;49.72;;;18.85;;
62941;SDS011;49042;47.318;19.874;2023-04-19T17:18:10;29.37;;;15.70;;
62941;SDS011;49042;47.318;19.874;2023-04-19T17:21:12;21.48;;;11.82;;
62941;SDS011;49042;47.318;19.874;2023-04-19T17:24:16;17.73;;;10.43;;
62941;SDS011;49042;47.318;19.874;2023-04-19T17:27:18;19.90;;;7.40;;
62941;SDS011;49042;47.318;19.874;2023-04-19T17:30:20;13.40;;;7.40;;
62941;SDS011;49042;47.318;19.874;2023-04-19T17:33:22;20.55;;;9.98;;
62941;SDS011;49042;47.318;19.874;2023-04-19T17:36:24;40.12;;;20.35;;
62941;SDS011;49042;47.318;19.874;2023-04-19T17:39:27;152.50;;;26.10;;
62941;SDS011;49042;47.318;19.874;2023-04-19T17:42:29;73.45;;;36.08;;
62941;SDS011;49042;47.318;19.874;2023-04-19T17:45:33;97.00;;;35.15;;
62941;SDS011;49042;47.318;19.874;2023-04-19T17:48:35;68.12;;;36.47;;
62941;SDS011;49042;47.318;19.874;2023-04-19T17:51:37;36.50;;;21.92;;
62941;SDS011;49042;47.318;19.874;2023-04-19T17:54:40;19.33;;;11.02;;
62941;SDS011;49042;47.318;19.874;2023-04-19T17:57:44;45.63;;;11.05;;
62941;SDS011;49042;47.318;19.874;2023-04-19T18:00:47;13.02;;;7.60;;
62941;SDS011;49042;47.318;19.874;2023-04-19T18:03:49;11.88;;;6.87;;
62941;SDS011;49042;47.318;19.874;2023-04-19T18:06:52;11.52;;;5.47;;
62941;SDS011;49042;47.318;19.874;2023-04-19T18:09:55;12.73;;;6.43;;
62941;SDS011;49042;47.318;19.874;2023-04-19T18:12:57;15.27;;;8.50;;
62941;SDS011;49042;47.318;19.874;2023-04-19T18:16:00;14.23;;;8.52;;
62941;SDS011;49042;47.318;19.874;2023-04-19T18:19:22;11.50;;;7.20;;